sensor_id;sensor_type;location;lat;lon;timestamp;P1;durP1;ratioP1;P2;durP2;ratioP2
72119;SDS011;59993;53.052;18.576;2022-08-19T00:01:27;19.08;;;13.48;;
72119;SDS011;59993;53.052;18.576;2022-08-19T00:03:54;19.47;;;13.03;;
72119;SDS011;59993;53.052;18.576;2022-08-19T00:06:21;20.23;;;13.98;;
72119;SDS011;59993;53.052;18.576;2022-08-19T00:08:46;22.38;;;13.60;;
72119;SDS011;59993;53.052;18.576;2022-08-19T00:11:12;18.33;;;14.00;;
72119;SDS011;59993;53.052;18.576;2022-08-19T00:13:38;18.77;;;13.55;;
72119;SDS011;59993;53.052;18.576;2022-08-19T00:16:03;21.83;;;13.70;;
72119;SDS011;59993;53.052;18.576;2022-08-19T00:18:31;18.58;;;14.05;;
72119;SDS011;59993;53.052;18.576;2022-08-19T00:20:57;23.23;;;14.40;;
72119;SDS011;59993;53.052;18.576;2022-08-19T00:23:24;22.07;;;14.13;;
72119;SDS011;59993;53.052;18.576;2022-08-19T00:25:50;19.20;;;14.35;;
72119;SDS011;59993;53.052;18.576;2022-08-19T00:28:15;20.53;;;15.43;;
72119;SDS011;59993;53.052;18.576;2022-08-19T00:30:41;19.70;;;14.15;;
72119;SDS011;59993;53.052;18.576;2022-08-19T00:33:06;25.60;;;14.17;;
72119;SDS011;59993;53.052;18.576;2022-08-19T00:35:33;23.45;;;14.93;;
72119;SDS011;59993;53.052;18.576;2022-08-19T00:37:59;22.90;;;14.70;;
72119;SDS011;59993;53.052;18.576;2022-08-19T00:40:24;23.75;;;15.18;;
72119;SDS011;59993;53.052;18.576;2022-08-19T00:42:51;20.80;;;14.88;;
72119;SDS011;59993;53.052;18.576;2022-08-19T00:45:24;25.02;;;15.98;;
72119;SDS011;59993;53.052;18.576;2022-08-19T00:47:51;24.50;;;15.97;;
72119;SDS011;59993;53.052;18.576;2022-08-19T00:50:17;27.38;;;16.85;;
72119;SDS011;59993;53.052;18.576;2022-08-19T00:52:45;24.13;;;16.33;;
72119;SDS011;59993;53.052;18.576;2022-08-19T00:55:23;28.65;;;18.05;;
72119;SDS011;59993;53.052;18.576;2022-08-19T00:58:01;29.27;;;18.48;;
72119;SDS011;59993;53.052;18.576;2022-08-19T01:00:32;35.27;;;17.67;;
72119;SDS011;59993;53.052;18.576;2022-08-19T01:03:12;32.40;;;18.65;;
72119;SDS011;59993;53.052;18.576;2022-08-19T01:05:40;34.50;;;19.75;;
72119;SDS011;59993;53.052;18.576;2022-08-19T01:08:07;32.25;;;18.92;;
72119;SDS011;59993;53.052;18.576;2022-08-19T01:10:37;31.33;;;19.17;;
72119;SDS011;59993;53.052;18.576;2022-08-19T01:13:06;32.90;;;20.43;;
72119;SDS011;59993;53.052;18.576;2022-08-19T01:15:34;31.80;;;18.73;;
72119;SDS011;59993;53.052;18.576;2022-08-19T01:18:08;33.22;;;17.90;;
72119;SDS011;59993;53.052;18.576;2022-08-19T01:20:35;35.95;;;20.27;;
72119;SDS011;59993;53.052;18.576;2022-08-19T01:23:02;33.57;;;19.90;;
72119;SDS011;59993;53.052;18.576;2022-08-19T01:25:29;33.97;;;19.35;;
72119;SDS011;59993;53.052;18.576;2022-08-19T01:28:03;34.78;;;19.20;;
72119;SDS011;59993;53.052;18.576;2022-08-19T01:30:30;35.57;;;18.80;;
72119;SDS011;59993;53.052;18.576;2022-08-19T01:32:58;32.05;;;18.23;;
72119;SDS011;59993;53.052;18.576;2022-08-19T01:35:30;38.10;;;20.23;;
72119;SDS011;59993;53.052;18.576;2022-08-19T01:38:00;31.27;;;19.90;;
72119;SDS011;59993;53.052;18.576;2022-08-19T01:40:33;35.03;;;18.20;;
72119;SDS011;59993;53.052;18.576;2022-08-19T01:43:01;31.83;;;19.13;;
72119;SDS011;59993;53.052;18.576;2022-08-19T01:45:28;37.55;;;19.30;;
72119;SDS011;59993;53.052;18.576;2022-08-19T01:47:56;29.77;;;18.40;;
72119;SDS011;59993;53.052;18.576;2022-08-19T01:50:23;33.50;;;18.70;;
72119;SDS011;59993;53.052;18.576;2022-08-19T01:52:49;28.10;;;17.43;;
72119;SDS011;59993;53.052;18.576;2022-08-19T01:55:15;32.15;;;18.38;;
72119;SDS011;59993;53.052;18.576;2022-08-19T01:57:44;30.20;;;18.48;;
72119;SDS011;59993;53.052;18.576;2022-08-19T02:00:14;30.63;;;17.10;;
72119;SDS011;59993;53.052;18.576;2022-08-19T02:02:43;29.60;;;18.13;;
72119;SDS011;59993;53.052;18.576;2022-08-19T02:05:10;27.73;;;18.27;;
72119;SDS011;59993;53.052;18.576;2022-08-19T02:07:37;26.42;;;18.75;;
72119;SDS011;59993;53.052;18.576;2022-08-19T02:10:05;27.60;;;18.55;;
72119;SDS011;59993;53.052;18.576;2022-08-19T02:12:32;28.63;;;17.47;;
72119;SDS011;59993;53.052;18.576;2022-08-19T02:14:58;28.50;;;17.42;;
72119;SDS011;59993;53.052;18.576;2022-08-19T02:17:26;30.27;;;17.80;;
72119;SDS011;59993;53.052;18.576;2022-08-19T02:19:53;25.67;;;17.33;;
72119;SDS011;59993;53.052;18.576;2022-08-19T02:22:19;31.33;;;17.52;;
72119;SDS011;59993;53.052;18.576;2022-08-19T02:24:45;30.98;;;18.90;;
72119;SDS011;59993;53.052;18.576;2022-08-19T02:27:13;25.77;;;17.27;;
72119;SDS011;59993;53.052;18.576;2022-08-19T02:29:38;29.35;;;18.15;;
72119;SDS011;59993;53.052;18.576;2022-08-19T02:32:04;30.23;;;17.90;;
72119;SDS011;59993;53.052;18.576;2022-08-19T02:34:29;29.60;;;17.00;;
72119;SDS011;59993;53.052;18.576;2022-08-19T02:36:55;28.50;;;19.13;;
72119;SDS011;59993;53.052;18.576;2022-08-19T02:39:20;28.92;;;18.40;;
72119;SDS011;59993;53.052;18.576;2022-08-19T02:41:46;30.73;;;18.30;;
72119;SDS011;59993;53.052;18.576;2022-08-19T02:44:11;27.90;;;18.53;;
72119;SDS011;59993;53.052;18.576;2022-08-19T02:46:37;24.47;;;18.33;;
72119;SDS011;59993;53.052;18.576;2022-08-19T02:49:04;23.90;;;17.20;;
72119;SDS011;59993;53.052;18.576;2022-08-19T02:51:34;27.25;;;17.60;;
72119;SDS011;59993;53.052;18.576;2022-08-19T02:54:02;24.40;;;16.87;;
72119;SDS011;59993;53.052;18.576;2022-08-19T02:56:29;26.63;;;17.75;;
72119;SDS011;59993;53.052;18.576;2022-08-19T02:58:56;26.45;;;17.40;;
72119;SDS011;59993;53.052;18.576;2022-08-19T03:01:25;26.73;;;18.65;;
72119;SDS011;59993;53.052;18.576;2022-08-19T03:03:52;29.73;;;18.02;;
72119;SDS011;59993;53.052;18.576;2022-08-19T03:06:19;27.50;;;17.37;;
72119;SDS011;59993;53.052;18.576;2022-08-19T03:08:45;28.13;;;17.20;;
72119;SDS011;59993;53.052;18.576;2022-08-19T03:11:14;23.17;;;16.13;;
72119;SDS011;59993;53.052;18.576;2022-08-19T03:13:41;26.63;;;17.10;;
72119;SDS011;59993;53.052;18.576;2022-08-19T03:16:08;23.30;;;16.13;;
72119;SDS011;59993;53.052;18.576;2022-08-19T03:18:34;26.70;;;15.90;;
72119;SDS011;59993;53.052;18.576;2022-08-19T03:20:59;23.35;;;16.83;;
72119;SDS011;59993;53.052;18.576;2022-08-19T03:23:25;30.07;;;16.97;;
72119;SDS011;59993;53.052;18.576;2022-08-19T03:25:51;22.45;;;17.00;;
72119;SDS011;59993;53.052;18.576;2022-08-19T03:28:18;25.70;;;16.07;;
72119;SDS011;59993;53.052;18.576;2022-08-19T03:30:59;28.40;;;17.63;;
72119;SDS011;59993;53.052;18.576;2022-08-19T03:33:26;24.30;;;15.85;;
72119;SDS011;59993;53.052;18.576;2022-08-19T03:36:00;26.08;;;16.63;;
72119;SDS011;59993;53.052;18.576;2022-08-19T03:38:30;24.52;;;16.67;;
72119;SDS011;59993;53.052;18.576;2022-08-19T03:40:57;24.83;;;18.10;;
72119;SDS011;59993;53.052;18.576;2022-08-19T03:43:23;27.33;;;17.92;;
72119;SDS011;59993;53.052;18.576;2022-08-19T03:45:58;26.67;;;17.25;;
72119;SDS011;59993;53.052;18.576;2022-08-19T03:48:29;27.30;;;19.08;;
72119;SDS011;59993;53.052;18.576;2022-08-19T03:50:56;27.27;;;17.43;;
72119;SDS011;59993;53.052;18.576;2022-08-19T03:53:23;22.60;;;16.30;;
72119;SDS011;59993;53.052;18.576;2022-08-19T03:55:55;27.20;;;18.67;;
72119;SDS011;59993;53.052;18.576;2022-08-19T03:58:21;26.75;;;17.02;;
72119;SDS011;59993;53.052;18.576;2022-08-19T04:00:47;30.88;;;18.50;;
72119;SDS011;59993;53.052;18.576;2022-08-19T04:03:16;28.77;;;18.87;;
72119;SDS011;59993;53.052;18.576;2022-08-19T04:05:43;31.98;;;19.17;;
72119;SDS011;59993;53.052;18.576;2022-08-19T04:08:09;25.10;;;17.55;;
72119;SDS011;59993;53.052;18.576;2022-08-19T04:10:35;26.50;;;16.83;;
72119;SDS011;59993;53.052;18.576;2022-08-19T04:13:02;29.73;;;17.85;;
72119;SDS011;59993;53.052;18.576;2022-08-19T04:15:30;28.15;;;16.55;;
72119;SDS011;59993;53.052;18.576;2022-08-19T04:18:00;30.03;;;18.63;;
72119;SDS011;59993;53.052;18.576;2022-08-19T04:20:26;26.40;;;17.63;;
72119;SDS011;59993;53.052;18.576;2022-08-19T04:22:52;25.33;;;18.33;;
72119;SDS011;59993;53.052;18.576;2022-08-19T04:25:17;34.78;;;18.73;;
72119;SDS011;59993;53.052;18.576;2022-08-19T04:27:42;30.53;;;19.03;;
72119;SDS011;59993;53.052;18.576;2022-08-19T04:30:11;28.02;;;17.48;;
72119;SDS011;59993;53.052;18.576;2022-08-19T04:32:38;27.77;;;18.10;;
72119;SDS011;59993;53.052;18.576;2022-08-19T04:35:03;26.10;;;17.67;;
72119;SDS011;59993;53.052;18.576;2022-08-19T04:37:29;24.10;;;16.08;;
72119;SDS011;59993;53.052;18.576;2022-08-19T04:39:58;26.77;;;18.00;;
72119;SDS011;59993;53.052;18.576;2022-08-19T04:42:42;25.03;;;17.40;;
72119;SDS011;59993;53.052;18.576;2022-08-19T04:45:10;24.73;;;16.25;;
72119;SDS011;59993;53.052;18.576;2022-08-19T04:47:38;26.83;;;16.13;;
72119;SDS011;59993;53.052;18.576;2022-08-19T04:50:05;22.77;;;15.23;;
72119;SDS011;59993;53.052;18.576;2022-08-19T04:52:32;24.08;;;15.48;;
72119;SDS011;59993;53.052;18.576;2022-08-19T04:54:57;24.33;;;15.93;;
72119;SDS011;59993;53.052;18.576;2022-08-19T04:57:23;25.63;;;16.77;;
72119;SDS011;59993;53.052;18.576;2022-08-19T04:59:49;26.20;;;15.88;;
72119;SDS011;59993;53.052;18.576;2022-08-19T05:02:19;24.90;;;15.32;;
72119;SDS011;59993;53.052;18.576;2022-08-19T05:04:45;22.63;;;15.33;;
72119;SDS011;59993;53.052;18.576;2022-08-19T05:07:10;21.53;;;14.67;;
72119;SDS011;59993;53.052;18.576;2022-08-19T05:09:36;18.33;;;13.57;;
72119;SDS011;59993;53.052;18.576;2022-08-19T05:12:02;24.23;;;14.65;;
72119;SDS011;59993;53.052;18.576;2022-08-19T05:14:28;17.73;;;13.37;;
72119;SDS011;59993;53.052;18.576;2022-08-19T05:16:53;26.17;;;14.88;;
72119;SDS011;59993;53.052;18.576;2022-08-19T05:19:19;21.00;;;13.70;;
72119;SDS011;59993;53.052;18.576;2022-08-19T05:22:03;21.58;;;13.90;;
72119;SDS011;59993;53.052;18.576;2022-08-19T05:24:47;18.42;;;12.57;;
72119;SDS011;59993;53.052;18.576;2022-08-19T05:27:12;23.73;;;12.80;;
72119;SDS011;59993;53.052;18.576;2022-08-19T05:29:38;15.00;;;12.18;;
72119;SDS011;59993;53.052;18.576;2022-08-19T05:32:05;16.52;;;12.55;;
72119;SDS011;59993;53.052;18.576;2022-08-19T05:34:33;18.20;;;12.53;;
72119;SDS011;59993;53.052;18.576;2022-08-19T05:37:01;20.70;;;12.45;;
72119;SDS011;59993;53.052;18.576;2022-08-19T05:39:28;17.35;;;12.25;;
72119;SDS011;59993;53.052;18.576;2022-08-19T05:41:58;21.13;;;12.82;;
72119;SDS011;59993;53.052;18.576;2022-08-19T05:44:29;17.77;;;11.45;;
72119;SDS011;59993;53.052;18.576;2022-08-19T05:46:57;18.30;;;10.97;;
72119;SDS011;59993;53.052;18.576;2022-08-19T05:49:24;21.45;;;11.32;;
72119;SDS011;59993;53.052;18.576;2022-08-19T05:51:52;17.83;;;11.63;;
72119;SDS011;59993;53.052;18.576;2022-08-19T05:54:19;21.90;;;12.27;;
72119;SDS011;59993;53.052;18.576;2022-08-19T05:56:45;21.87;;;12.67;;
72119;SDS011;59993;53.052;18.576;2022-08-19T05:59:13;19.15;;;11.88;;
72119;SDS011;59993;53.052;18.576;2022-08-19T06:01:41;23.00;;;12.65;;
72119;SDS011;59993;53.052;18.576;2022-08-19T06:04:09;18.27;;;11.13;;
72119;SDS011;59993;53.052;18.576;2022-08-19T06:06:35;25.67;;;12.40;;
72119;SDS011;59993;53.052;18.576;2022-08-19T06:09:04;17.80;;;12.00;;
72119;SDS011;59993;53.052;18.576;2022-08-19T06:11:38;21.05;;;12.65;;
72119;SDS011;59993;53.052;18.576;2022-08-19T06:14:09;19.53;;;9.93;;
72119;SDS011;59993;53.052;18.576;2022-08-19T06:16:38;15.25;;;11.75;;
72119;SDS011;59993;53.052;18.576;2022-08-19T06:19:06;17.50;;;11.50;;
72119;SDS011;59993;53.052;18.576;2022-08-19T06:21:38;12.90;;;10.77;;
72119;SDS011;59993;53.052;18.576;2022-08-19T06:24:06;13.35;;;11.20;;
72119;SDS011;59993;53.052;18.576;2022-08-19T06:26:37;15.43;;;12.60;;
72119;SDS011;59993;53.052;18.576;2022-08-19T06:29:04;16.70;;;10.88;;
72119;SDS011;59993;53.052;18.576;2022-08-19T06:31:32;19.17;;;11.93;;
72119;SDS011;59993;53.052;18.576;2022-08-19T06:34:05;14.43;;;11.10;;
72119;SDS011;59993;53.052;18.576;2022-08-19T06:36:34;15.00;;;10.85;;
72119;SDS011;59993;53.052;18.576;2022-08-19T06:39:07;13.90;;;10.70;;
72119;SDS011;59993;53.052;18.576;2022-08-19T06:41:35;15.20;;;10.80;;
72119;SDS011;59993;53.052;18.576;2022-08-19T06:44:02;15.65;;;10.80;;
72119;SDS011;59993;53.052;18.576;2022-08-19T06:46:29;17.58;;;10.43;;
72119;SDS011;59993;53.052;18.576;2022-08-19T06:48:55;18.50;;;9.65;;
72119;SDS011;59993;53.052;18.576;2022-08-19T06:51:22;14.03;;;11.17;;
72119;SDS011;59993;53.052;18.576;2022-08-19T06:53:49;14.60;;;10.35;;
72119;SDS011;59993;53.052;18.576;2022-08-19T06:56:21;16.48;;;10.68;;
72119;SDS011;59993;53.052;18.576;2022-08-19T06:58:50;13.60;;;10.55;;
72119;SDS011;59993;53.052;18.576;2022-08-19T07:01:18;13.00;;;10.32;;
72119;SDS011;59993;53.052;18.576;2022-08-19T07:03:45;13.40;;;9.63;;
72119;SDS011;59993;53.052;18.576;2022-08-19T07:06:12;13.70;;;9.75;;
72119;SDS011;59993;53.052;18.576;2022-08-19T07:08:42;13.32;;;9.40;;
72119;SDS011;59993;53.052;18.576;2022-08-19T07:11:10;13.50;;;10.13;;
72119;SDS011;59993;53.052;18.576;2022-08-19T07:13:38;13.85;;;10.18;;
72119;SDS011;59993;53.052;18.576;2022-08-19T07:16:07;14.20;;;8.87;;
72119;SDS011;59993;53.052;18.576;2022-08-19T07:18:34;13.55;;;8.95;;
72119;SDS011;59993;53.052;18.576;2022-08-19T07:21:05;12.27;;;9.45;;
72119;SDS011;59993;53.052;18.576;2022-08-19T07:23:42;17.27;;;9.75;;
72119;SDS011;59993;53.052;18.576;2022-08-19T07:26:09;12.70;;;9.07;;
72119;SDS011;59993;53.052;18.576;2022-08-19T07:28:41;11.97;;;8.50;;
72119;SDS011;59993;53.052;18.576;2022-08-19T07:31:09;10.95;;;8.55;;
72119;SDS011;59993;53.052;18.576;2022-08-19T07:33:37;15.38;;;8.52;;
72119;SDS011;59993;53.052;18.576;2022-08-19T07:36:03;12.95;;;9.18;;
72119;SDS011;59993;53.052;18.576;2022-08-19T07:38:32;13.17;;;8.50;;
72119;SDS011;59993;53.052;18.576;2022-08-19T07:40:58;12.55;;;9.50;;
72119;SDS011;59993;53.052;18.576;2022-08-19T07:43:25;13.73;;;8.52;;
72119;SDS011;59993;53.052;18.576;2022-08-19T07:45:52;11.80;;;8.80;;
72119;SDS011;59993;53.052;18.576;2022-08-19T07:48:22;10.90;;;8.15;;
72119;SDS011;59993;53.052;18.576;2022-08-19T07:50:52;12.60;;;8.53;;
72119;SDS011;59993;53.052;18.576;2022-08-19T07:53:20;9.70;;;8.52;;
72119;SDS011;59993;53.052;18.576;2022-08-19T07:55:46;10.07;;;8.55;;
72119;SDS011;59993;53.052;18.576;2022-08-19T07:58:13;20.45;;;9.00;;
72119;SDS011;59993;53.052;18.576;2022-08-19T08:00:40;13.38;;;9.10;;
72119;SDS011;59993;53.052;18.576;2022-08-19T08:03:07;15.90;;;9.30;;
72119;SDS011;59993;53.052;18.576;2022-08-19T08:05:33;15.70;;;8.57;;
72119;SDS011;59993;53.052;18.576;2022-08-19T08:08:18;13.30;;;9.43;;
72119;SDS011;59993;53.052;18.576;2022-08-19T08:11:07;12.05;;;9.90;;
72119;SDS011;59993;53.052;18.576;2022-08-19T08:13:35;10.10;;;8.80;;
72119;SDS011;59993;53.052;18.576;2022-08-19T08:16:02;11.82;;;8.63;;
72119;SDS011;59993;53.052;18.576;2022-08-19T08:18:28;11.65;;;8.63;;
72119;SDS011;59993;53.052;18.576;2022-08-19T08:20:54;10.33;;;8.43;;
72119;SDS011;59993;53.052;18.576;2022-08-19T08:23:20;9.38;;;8.30;;
72119;SDS011;59993;53.052;18.576;2022-08-19T08:25:59;15.23;;;8.80;;
72119;SDS011;59993;53.052;18.576;2022-08-19T08:28:26;11.80;;;8.27;;
72119;SDS011;59993;53.052;18.576;2022-08-19T08:30:52;10.55;;;8.05;;
72119;SDS011;59993;53.052;18.576;2022-08-19T08:33:19;12.00;;;8.17;;
72119;SDS011;59993;53.052;18.576;2022-08-19T08:35:46;9.60;;;8.20;;
72119;SDS011;59993;53.052;18.576;2022-08-19T08:38:12;12.88;;;8.90;;
72119;SDS011;59993;53.052;18.576;2022-08-19T08:43:11;13.32;;;9.38;;
72119;SDS011;59993;53.052;18.576;2022-08-19T08:45:52;11.13;;;8.38;;
72119;SDS011;59993;53.052;18.576;2022-08-19T08:48:52;17.23;;;7.95;;
72119;SDS011;59993;53.052;18.576;2022-08-19T08:51:29;15.00;;;9.32;;
72119;SDS011;59993;53.052;18.576;2022-08-19T08:54:05;10.07;;;7.40;;
72119;SDS011;59993;53.052;18.576;2022-08-19T08:56:32;11.80;;;8.13;;
72119;SDS011;59993;53.052;18.576;2022-08-19T08:59:05;11.05;;;7.22;;
72119;SDS011;59993;53.052;18.576;2022-08-19T09:01:37;9.85;;;7.85;;
72119;SDS011;59993;53.052;18.576;2022-08-19T09:04:06;8.13;;;7.33;;
72119;SDS011;59993;53.052;18.576;2022-08-19T09:09:27;9.88;;;7.32;;
72119;SDS011;59993;53.052;18.576;2022-08-19T09:12:16;13.90;;;7.57;;
72119;SDS011;59993;53.052;18.576;2022-08-19T09:14:58;11.23;;;7.18;;
72119;SDS011;59993;53.052;18.576;2022-08-19T09:17:28;8.52;;;7.40;;
72119;SDS011;59993;53.052;18.576;2022-08-19T09:22:39;10.10;;;7.05;;
72119;SDS011;59993;53.052;18.576;2022-08-19T09:25:11;11.23;;;7.43;;
72119;SDS011;59993;53.052;18.576;2022-08-19T09:27:40;10.07;;;6.90;;
72119;SDS011;59993;53.052;18.576;2022-08-19T09:30:07;9.40;;;7.05;;
72119;SDS011;59993;53.052;18.576;2022-08-19T09:32:35;10.40;;;8.30;;
72119;SDS011;59993;53.052;18.576;2022-08-19T09:35:01;12.05;;;7.72;;
72119;SDS011;59993;53.052;18.576;2022-08-19T09:37:26;9.70;;;7.50;;
72119;SDS011;59993;53.052;18.576;2022-08-19T09:39:52;13.52;;;7.90;;
72119;SDS011;59993;53.052;18.576;2022-08-19T09:42:18;9.47;;;7.43;;
72119;SDS011;59993;53.052;18.576;2022-08-19T09:44:45;8.48;;;7.15;;
72119;SDS011;59993;53.052;18.576;2022-08-19T09:47:11;9.65;;;7.63;;
72119;SDS011;59993;53.052;18.576;2022-08-19T09:49:39;11.25;;;8.10;;
72119;SDS011;59993;53.052;18.576;2022-08-19T09:52:08;9.93;;;8.90;;
72119;SDS011;59993;53.052;18.576;2022-08-19T09:54:35;9.85;;;7.57;;
72119;SDS011;59993;53.052;18.576;2022-08-19T09:57:02;11.07;;;8.13;;
72119;SDS011;59993;53.052;18.576;2022-08-19T09:59:28;10.50;;;8.40;;
72119;SDS011;59993;53.052;18.576;2022-08-19T10:01:54;8.88;;;7.93;;
72119;SDS011;59993;53.052;18.576;2022-08-19T10:04:20;9.75;;;8.85;;
72119;SDS011;59993;53.052;18.576;2022-08-19T10:06:46;9.80;;;8.52;;
72119;SDS011;59993;53.052;18.576;2022-08-19T10:09:14;10.32;;;7.00;;
72119;SDS011;59993;53.052;18.576;2022-08-19T10:11:43;11.47;;;8.33;;
72119;SDS011;59993;53.052;18.576;2022-08-19T10:14:14;9.05;;;8.15;;
72119;SDS011;59993;53.052;18.576;2022-08-19T10:16:41;13.10;;;9.00;;
72119;SDS011;59993;53.052;18.576;2022-08-19T10:19:08;11.80;;;8.60;;
72119;SDS011;59993;53.052;18.576;2022-08-19T10:21:34;10.70;;;8.40;;
72119;SDS011;59993;53.052;18.576;2022-08-19T10:24:01;9.67;;;7.57;;
72119;SDS011;59993;53.052;18.576;2022-08-19T10:26:37;11.13;;;8.00;;
72119;SDS011;59993;53.052;18.576;2022-08-19T10:29:06;10.55;;;8.35;;
72119;SDS011;59993;53.052;18.576;2022-08-19T10:31:32;11.70;;;8.40;;
72119;SDS011;59993;53.052;18.576;2022-08-19T10:33:59;9.68;;;8.68;;
72119;SDS011;59993;53.052;18.576;2022-08-19T10:36:29;13.98;;;8.77;;
72119;SDS011;59993;53.052;18.576;2022-08-19T10:39:01;10.45;;;9.38;;
72119;SDS011;59993;53.052;18.576;2022-08-19T10:41:31;13.30;;;8.80;;
72119;SDS011;59993;53.052;18.576;2022-08-19T10:44:01;11.43;;;9.20;;
72119;SDS011;59993;53.052;18.576;2022-08-19T10:46:30;12.98;;;9.20;;
72119;SDS011;59993;53.052;18.576;2022-08-19T10:48:57;13.45;;;9.48;;
72119;SDS011;59993;53.052;18.576;2022-08-19T10:51:24;14.15;;;9.63;;
72119;SDS011;59993;53.052;18.576;2022-08-19T10:54:09;14.77;;;9.93;;
72119;SDS011;59993;53.052;18.576;2022-08-19T10:56:35;12.90;;;8.57;;
72119;SDS011;59993;53.052;18.576;2022-08-19T10:59:17;13.32;;;9.02;;
72119;SDS011;59993;53.052;18.576;2022-08-19T11:01:47;11.63;;;9.27;;
72119;SDS011;59993;53.052;18.576;2022-08-19T11:04:14;10.73;;;9.10;;
72119;SDS011;59993;53.052;18.576;2022-08-19T11:06:43;12.75;;;8.60;;
72119;SDS011;59993;53.052;18.576;2022-08-19T11:09:12;10.13;;;9.13;;
72119;SDS011;59993;53.052;18.576;2022-08-19T11:11:37;10.27;;;8.67;;
72119;SDS011;59993;53.052;18.576;2022-08-19T11:14:07;11.80;;;9.10;;
72119;SDS011;59993;53.052;18.576;2022-08-19T11:16:35;10.38;;;9.13;;
72119;SDS011;59993;53.052;18.576;2022-08-19T11:19:01;12.02;;;9.40;;
72119;SDS011;59993;53.052;18.576;2022-08-19T11:21:28;14.57;;;9.30;;
72119;SDS011;59993;53.052;18.576;2022-08-19T11:24:03;12.15;;;9.07;;
72119;SDS011;59993;53.052;18.576;2022-08-19T11:26:35;10.33;;;8.30;;
72119;SDS011;59993;53.052;18.576;2022-08-19T11:29:02;11.77;;;9.18;;
72119;SDS011;59993;53.052;18.576;2022-08-19T11:31:30;10.05;;;7.70;;
72119;SDS011;59993;53.052;18.576;2022-08-19T11:33:58;21.02;;;9.25;;
72119;SDS011;59993;53.052;18.576;2022-08-19T11:36:28;12.57;;;9.02;;
72119;SDS011;59993;53.052;18.576;2022-08-19T11:38:54;14.67;;;8.90;;
72119;SDS011;59993;53.052;18.576;2022-08-19T11:41:21;11.02;;;9.13;;
72119;SDS011;59993;53.052;18.576;2022-08-19T11:43:48;11.32;;;8.02;;
72119;SDS011;59993;53.052;18.576;2022-08-19T11:46:15;13.85;;;8.50;;
72119;SDS011;59993;53.052;18.576;2022-08-19T11:48:42;10.37;;;8.57;;
72119;SDS011;59993;53.052;18.576;2022-08-19T11:51:10;11.25;;;8.82;;
72119;SDS011;59993;53.052;18.576;2022-08-19T11:53:38;10.38;;;8.93;;
72119;SDS011;59993;53.052;18.576;2022-08-19T11:56:04;13.73;;;9.13;;
72119;SDS011;59993;53.052;18.576;2022-08-19T11:58:31;10.32;;;8.85;;
72119;SDS011;59993;53.052;18.576;2022-08-19T12:00:57;14.93;;;9.60;;
72119;SDS011;59993;53.052;18.576;2022-08-19T12:03:23;12.98;;;8.57;;
72119;SDS011;59993;53.052;18.576;2022-08-19T12:05:49;14.20;;;7.90;;
72119;SDS011;59993;53.052;18.576;2022-08-19T12:08:15;12.57;;;7.90;;
72119;SDS011;59993;53.052;18.576;2022-08-19T12:10:41;12.95;;;8.05;;
72119;SDS011;59993;53.052;18.576;2022-08-19T12:13:10;10.02;;;9.00;;
72119;SDS011;59993;53.052;18.576;2022-08-19T12:15:39;11.30;;;8.50;;
72119;SDS011;59993;53.052;18.576;2022-08-19T12:18:06;17.20;;;8.77;;
72119;SDS011;59993;53.052;18.576;2022-08-19T12:20:37;11.57;;;9.10;;
72119;SDS011;59993;53.052;18.576;2022-08-19T12:23:05;13.88;;;8.98;;
72119;SDS011;59993;53.052;18.576;2022-08-19T12:25:31;11.77;;;8.57;;
72119;SDS011;59993;53.052;18.576;2022-08-19T12:27:58;12.43;;;7.57;;
72119;SDS011;59993;53.052;18.576;2022-08-19T12:30:24;9.77;;;7.93;;
72119;SDS011;59993;53.052;18.576;2022-08-19T12:32:50;10.67;;;7.60;;
72119;SDS011;59993;53.052;18.576;2022-08-19T12:35:16;12.80;;;8.50;;
72119;SDS011;59993;53.052;18.576;2022-08-19T12:37:44;10.10;;;8.52;;
72119;SDS011;59993;53.052;18.576;2022-08-19T12:40:11;11.02;;;9.02;;
72119;SDS011;59993;53.052;18.576;2022-08-19T12:42:37;12.05;;;8.60;;
72119;SDS011;59993;53.052;18.576;2022-08-19T12:45:08;11.00;;;8.10;;
72119;SDS011;59993;53.052;18.576;2022-08-19T12:47:35;12.65;;;8.15;;
72119;SDS011;59993;53.052;18.576;2022-08-19T12:50:00;13.18;;;8.05;;
72119;SDS011;59993;53.052;18.576;2022-08-19T12:52:26;16.33;;;9.07;;
72119;SDS011;59993;53.052;18.576;2022-08-19T12:54:53;15.27;;;8.45;;
72119;SDS011;59993;53.052;18.576;2022-08-19T12:57:19;11.93;;;8.05;;
72119;SDS011;59993;53.052;18.576;2022-08-19T12:59:45;18.80;;;13.03;;
72119;SDS011;59993;53.052;18.576;2022-08-19T13:02:10;14.33;;;9.07;;
72119;SDS011;59993;53.052;18.576;2022-08-19T13:04:36;11.53;;;8.80;;
72119;SDS011;59993;53.052;18.576;2022-08-19T13:07:05;16.90;;;9.02;;
72119;SDS011;59993;53.052;18.576;2022-08-19T13:09:31;8.65;;;7.75;;
72119;SDS011;59993;53.052;18.576;2022-08-19T13:11:57;13.33;;;8.20;;
72119;SDS011;59993;53.052;18.576;2022-08-19T13:14:24;12.18;;;7.97;;
72119;SDS011;59993;53.052;18.576;2022-08-19T13:16:49;11.93;;;7.47;;
72119;SDS011;59993;53.052;18.576;2022-08-19T13:19:15;11.70;;;8.13;;
72119;SDS011;59993;53.052;18.576;2022-08-19T13:21:40;12.45;;;8.07;;
72119;SDS011;59993;53.052;18.576;2022-08-19T13:24:06;11.10;;;8.03;;
72119;SDS011;59993;53.052;18.576;2022-08-19T13:26:31;13.70;;;7.80;;
72119;SDS011;59993;53.052;18.576;2022-08-19T13:28:57;11.93;;;7.10;;
72119;SDS011;59993;53.052;18.576;2022-08-19T13:31:41;8.95;;;8.05;;
72119;SDS011;59993;53.052;18.576;2022-08-19T13:34:32;14.40;;;7.97;;
72119;SDS011;59993;53.052;18.576;2022-08-19T13:37:00;15.38;;;8.55;;
72119;SDS011;59993;53.052;18.576;2022-08-19T13:39:31;14.35;;;7.55;;
72119;SDS011;59993;53.052;18.576;2022-08-19T13:41:57;14.60;;;8.70;;
72119;SDS011;59993;53.052;18.576;2022-08-19T13:44:25;13.07;;;8.07;;
72119;SDS011;59993;53.052;18.576;2022-08-19T13:46:54;15.07;;;8.20;;
72119;SDS011;59993;53.052;18.576;2022-08-19T13:49:27;11.93;;;8.07;;
72119;SDS011;59993;53.052;18.576;2022-08-19T13:51:55;15.38;;;8.10;;
72119;SDS011;59993;53.052;18.576;2022-08-19T13:54:21;13.33;;;8.40;;
72119;SDS011;59993;53.052;18.576;2022-08-19T13:56:47;11.70;;;7.55;;
72119;SDS011;59993;53.052;18.576;2022-08-19T13:59:12;10.33;;;8.47;;
72119;SDS011;59993;53.052;18.576;2022-08-19T14:01:39;14.48;;;9.05;;
72119;SDS011;59993;53.052;18.576;2022-08-19T14:04:05;10.95;;;8.68;;
72119;SDS011;59993;53.052;18.576;2022-08-19T14:06:31;12.37;;;8.57;;
72119;SDS011;59993;53.052;18.576;2022-08-19T14:08:57;11.52;;;8.48;;
72119;SDS011;59993;53.052;18.576;2022-08-19T14:11:22;14.60;;;9.35;;
72119;SDS011;59993;53.052;18.576;2022-08-19T14:13:48;15.37;;;9.07;;
72119;SDS011;59993;53.052;18.576;2022-08-19T14:16:15;15.75;;;10.10;;
72119;SDS011;59993;53.052;18.576;2022-08-19T14:18:41;10.07;;;8.00;;
72119;SDS011;59993;53.052;18.576;2022-08-19T14:21:08;11.10;;;7.97;;
72119;SDS011;59993;53.052;18.576;2022-08-19T14:23:40;11.38;;;8.40;;
72119;SDS011;59993;53.052;18.576;2022-08-19T14:26:10;15.90;;;8.63;;
72119;SDS011;59993;53.052;18.576;2022-08-19T14:28:39;16.38;;;9.93;;
72119;SDS011;59993;53.052;18.576;2022-08-19T14:31:09;11.88;;;9.23;;